Time;durP1;ratioP1;P1;durP2;ratioP2;P2;SDS_P1;SDS_P2;PMS_P1;PMS_P2;Temp;Humidity;BMP_temperature;BMP_pressure;BME280_temperature;BME280_humidity;BME280_pressure;Samples;Min_cycle;Max_cycle;Signal;HPM_P1;HPM_P2
2021/10/21 00:00:21;;;;;;;26.95;18.02;;;;;;;7.51;100.00;93856.44;5038471;28;20483;-88
2021/10/21 00:02:48;;;;;;;27.13;18.75;;;;;;;7.51;100.00;93858.19;5038983;28;20049;-87
2021/10/21 00:05:15;;;;;;;31.27;19.92;;;;;;;7.59;100.00;93853.03;5038484;28;20091;-87
2021/10/21 00:07:42;;;;;;;30.25;18.55;;;;;;;7.64;100.00;93858.38;5038357;28;20503;-87
2021/10/21 00:10:10;;;;;;;29.30;19.45;;;;;;;7.68;100.00;93857.06;5038456;28;20049;-87
2021/10/21 00:12:37;;;;;;;30.40;19.67;;;;;;;7.67;100.00;93860.59;5038233;28;20702;-87
2021/10/21 00:15:08;;;;;;;25.88;17.23;;;;;;;7.69;100.00;93850.97;5038370;28;20041;-87
2021/10/21 00:17:35;;;;;;;24.30;16.98;;;;;;;7.69;100.00;93847.66;5038466;28;20045;-87
2021/10/21 00:20:02;;;;;;;24.40;17.38;;;;;;;7.79;100.00;93850.75;5037989;28;20056;-87
2021/10/21 00:22:29;;;;;;;22.75;16.15;;;;;;;7.74;100.00;93853.81;5038271;28;20037;-88
2021/10/21 00:24:55;;;;;;;27.13;16.67;;;;;;;7.64;100.00;93837.16;5038018;28;20052;-87
2021/10/21 00:27:23;;;;;;;25.70;17.23;;;;;;;7.64;100.00;93842.25;5038176;28;20492;-87
2021/10/21 00:29:50;;;;;;;26.50;16.77;;;;;;;7.67;100.00;93841.91;5038183;28;20118;-86
2021/10/21 00:32:18;;;;;;;25.15;17.13;;;;;;;7.68;100.00;93848.63;5038073;28;20053;-87
2021/10/21 00:34:45;;;;;;;24.63;16.55;;;;;;;7.53;100.00;93815.34;5038023;28;20069;-87
2021/10/21 00:37:12;;;;;;;29.80;19.27;;;;;;;7.67;100.00;93829.09;5038076;28;20056;-86
2021/10/21 00:39:39;;;;;;;32.85;20.02;;;;;;;7.67;100.00;93832.47;5037104;28;20057;-87
2021/10/21 00:42:06;;;;;;;30.58;19.25;;;;;;;7.59;100.00;93825.69;5038433;28;20164;-87
2021/10/21 00:44:33;;;;;;;25.98;17.45;;;;;;;7.58;100.00;93818.19;5037971;28;20044;-87
2021/10/21 00:46:59;;;;;;;26.88;18.13;;;;;;;7.61;100.00;93815.28;5037819;28;20060;-87
2021/10/21 00:49:28;;;;;;;24.67;16.70;;;;;;;7.58;100.00;93816.41;5037908;28;20054;-87
2021/10/21 00:51:56;;;;;;;25.25;17.33;;;;;;;7.59;100.00;93819.78;5037801;28;20053;-88
2021/10/21 00:54:23;;;;;;;27.40;18.55;;;;;;;7.59;100.00;93817.22;5037572;28;20052;-87
2021/10/21 00:56:51;;;;;;;23.65;16.20;;;;;;;7.53;100.00;93810.22;5038095;28;20041;-87
2021/10/21 00:59:19;;;;;;;27.42;17.27;;;;;;;7.51;100.00;93804.50;5037813;28;20439;-88
2021/10/21 01:01:46;;;;;;;22.92;17.02;;;;;;;7.57;100.00;93807.16;5037542;28;20475;-88
2021/10/21 01:04:13;;;;;;;23.48;16.20;;;;;;;7.59;100.00;93807.00;5037372;28;20094;-87
2021/10/21 01:06:42;;;;;;;25.98;16.52;;;;;;;7.56;100.00;93803.03;5037011;28;20076;-88
2021/10/21 01:09:10;;;;;;;24.25;17.05;;;;;;;7.43;100.00;93784.94;5037691;28;20045;-88
2021/10/21 01:11:39;;;;;;;23.48;15.93;;;;;;;7.26;100.00;93756.22;5037343;28;20511;-87
2021/10/21 01:14:06;;;;;;;22.65;15.75;;;;;;;7.55;100.00;93793.75;5037633;28;20045;-87
2021/10/21 01:16:34;;;;;;;22.42;15.82;;;;;;;7.55;100.00;93795.53;5037250;28;20525;-87
2021/10/21 01:19:01;;;;;;;22.77;16.42;;;;;;;7.57;100.00;93796.94;5037165;28;20568;-87
2021/10/21 01:21:29;;;;;;;25.27;17.08;;;;;;;7.60;100.00;93798.34;5037629;28;20050;-87
2021/10/21 01:23:56;;;;;;;27.83;17.08;;;;;;;7.58;100.00;93788.31;5037214;28;20107;-87
2021/10/21 01:26:23;;;;;;;23.15;16.40;;;;;;;7.61;100.00;93793.06;5037277;28;20041;-87
2021/10/21 01:28:50;;;;;;;24.15;16.20;;;;;;;7.62;100.00;93783.63;5037226;28;20549;-87
2021/10/21 01:31:16;;;;;;;27.15;18.77;;;;;;;7.65;100.00;93782.47;5032991;28;20052;-87
2021/10/21 01:33:43;;;;;;;26.40;17.23;;;;;;;7.67;100.00;93788.19;5031485;28;20454;-88
2021/10/21 01:36:12;;;;;;;27.38;18.35;;;;;;;7.67;100.00;93788.19;5032063;28;20049;-87
2021/10/21 01:38:42;;;;;;;27.45;19.05;;;;;;;7.71;100.00;93774.09;5032271;28;20064;-87
2021/10/21 01:41:09;;;;;;;27.52;19.17;;;;;;;7.66;100.00;93781.50;5031867;28;20057;-88
2021/10/21 01:43:42;;;;;;;28.30;19.25;;;;;;;7.65;100.00;93790.16;5032017;28;20053;-87
2021/10/21 01:46:10;;;;;;;25.38;18.60;;;;;;;7.65;100.00;93782.47;5031822;28;20052;-88
2021/10/21 01:48:37;;;;;;;31.73;20.00;;;;;;;7.60;100.00;93767.69;5031952;28;20053;-88
2021/10/21 01:51:04;;;;;;;29.35;19.65;;;;;;;7.73;100.00;93772.16;5031908;28;20045;-88
2021/10/21 01:53:31;;;;;;;32.75;20.20;;;;;;;7.62;100.00;93751.19;5031753;28;20549;-88
2021/10/21 01:55:59;;;;;;;29.95;20.35;;;;;;;7.71;100.00;93756.19;5032081;28;20050;-88
2021/10/21 01:58:27;;;;;;;33.90;20.45;;;;;;;7.80;100.00;93755.13;5031729;28;20057;-87
2021/10/21 02:00:54;;;;;;;31.45;21.08;;;;;;;7.69;100.00;93737.69;5031449;28;20053;-88
2021/10/21 02:03:21;;;;;;;28.15;19.90;;;;;;;7.84;100.00;93765.78;5031695;28;20050;-88
2021/10/21 02:05:47;;;;;;;30.60;20.25;;;;;;;7.81;100.00;93764.38;5031579;28;20045;-90
2021/10/21 02:08:14;;;;;;;32.47;21.30;;;;;;;7.87;100.00;93758.56;5032131;28;20064;-87
2021/10/21 02:10:41;;;;;;;32.50;21.83;;;;;;;7.81;100.00;93758.47;5031543;28;20511;-88
2021/10/21 02:13:10;;;;;;;36.25;24.20;;;;;;;7.87;100.00;93753.44;5031381;28;20049;-87
2021/10/21 02:15:41;;;;;;;30.63;22.58;;;;;;;7.68;100.00;93716.44;5031608;28;20480;-88
2021/10/21 02:18:08;;;;;;;33.95;22.70;;;;;;;7.91;100.00;93747.97;5031284;28;20056;-88
2021/10/21 02:20:35;;;;;;;35.05;22.50;;;;;;;7.91;100.00;93743.63;5031351;28;20087;-88
2021/10/21 02:23:02;;;;;;;33.83;22.90;;;;;;;7.92;100.00;93745.22;5031342;28;20053;-88
2021/10/21 02:25:31;;;;;;;37.05;23.75;;;;;;;7.72;100.00;93711.75;5031340;28;20492;-87
2021/10/21 02:27:58;;;;;;;35.65;21.70;;;;;;;7.94;100.00;93745.84;5031165;28;20049;-88
2021/10/21 02:30:26;;;;;;;33.70;22.50;;;;;;;7.94;100.00;93748.41;5031114;28;20542;-88
2021/10/21 02:32:53;;;;;;;34.85;21.92;;;;;;;7.94;100.00;93745.03;5031126;28;20049;-87
2021/10/21 02:35:24;;;;;;;32.58;23.25;;;;;;;7.88;100.00;93732.00;5031219;28;20049;-87
2021/10/21 02:37:51;;;;;;;33.80;22.48;;;;;;;7.92;100.00;93739.31;5031564;28;20144;-87
2021/10/21 02:40:18;;;;;;;30.65;21.88;;;;;;;7.98;100.00;93736.03;5031198;28;20567;-87
2021/10/21 02:42:45;;;;;;;32.90;22.05;;;;;;;7.92;100.00;93722.19;5031011;28;20480;-86
2021/10/21 02:45:12;;;;;;;33.35;23.38;;;;;;;8.05;100.00;93733.56;5030999;28;20046;-87
2021/10/21 02:47:40;;;;;;;31.60;21.52;;;;;;;8.04;100.00;93727.66;5030845;28;20503;-87
2021/10/21 02:50:07;;;;;;;38.10;22.85;;;;;;;7.98;100.00;93728.38;5030849;28;20053;-87
2021/10/21 02:52:34;;;;;;;34.35;23.02;;;;;;;8.00;100.00;93727.22;5030822;28;20097;-88
2021/10/21 02:55:01;;;;;;;32.50;22.33;;;;;;;8.00;100.00;93719.53;5030741;28;20095;-87
2021/10/21 02:57:27;;;;;;;32.22;22.45;;;;;;;8.04;100.00;93722.53;5030750;28;20057;-90
2021/10/21 02:59:54;;;;;;;34.33;22.30;;;;;;;8.00;100.00;93711.88;5031086;28;20041;-88
2021/10/21 03:02:21;;;;;;;32.90;22.38;;;;;;;8.07;100.00;93719.63;5030376;28;20623;-87
2021/10/21 03:04:49;;;;;;;30.92;20.42;;;;;;;8.09;100.00;93724.53;5030746;28;20049;-87
2021/10/21 03:07:16;;;;;;;33.25;21.83;;;;;;;8.02;100.00;93712.47;5031137;28;20369;-87
2021/10/21 03:09:43;;;;;;;28.58;19.83;;;;;;;8.09;100.00;93722.78;5031392;28;20049;-89
2021/10/21 03:12:13;;;;;;;32.03;21.33;;;;;;;8.07;100.00;93721.38;5032792;28;20139;-87
2021/10/21 03:14:40;;;;;;;33.90;22.85;;;;;;;8.09;100.00;93711.75;5033468;28;20049;-87
2021/10/21 03:17:09;;;;;;;35.08;23.52;;;;;;;8.08;100.00;93710.16;5031280;28;20049;-86
2021/10/21 03:19:38;;;;;;;35.05;22.90;;;;;;;8.04;100.00;93699.50;5031274;28;20076;-86
2021/10/21 03:22:06;;;;;;;34.70;23.10;;;;;;;7.97;100.00;93689.19;5030279;28;20487;-87
2021/10/21 03:24:33;;;;;;;34.80;21.77;;;;;;;8.16;100.00;93707.50;5030591;28;20100;-87
2021/10/21 03:27:00;;;;;;;34.88;23.52;;;;;;;8.13;100.00;93707.84;5030428;28;20503;-87
2021/10/21 03:29:27;;;;;;;35.95;23.25;;;;;;;8.16;100.00;93705.72;5030535;28;20103;-86
2021/10/21 03:31:53;;;;;;;32.33;22.60;;;;;;;8.17;100.00;93703.97;5030637;28;20046;-86
2021/10/21 03:34:20;;;;;;;34.83;23.08;;;;;;;8.11;100.00;93691.91;5030663;28;21519;-86
2021/10/21 03:36:47;;;;;;;37.92;24.25;;;;;;;8.14;100.00;93692.31;5030328;28;20042;-85
2021/10/21 03:39:15;;;;;;;37.95;23.77;;;;;;;8.14;100.00;93688.97;5030494;28;20045;-87
2021/10/21 03:41:42;;;;;;;38.13;23.13;;;;;;;8.12;100.00;93689.16;5030508;28;20045;-86
2021/10/21 03:44:09;;;;;;;34.45;22.23;;;;;;;8.14;100.00;93684.66;5030499;28;20050;-86
2021/10/21 03:46:36;;;;;;;33.22;21.83;;;;;;;8.12;100.00;93686.59;5030409;28;20060;-86
2021/10/21 03:49:04;;;;;;;36.05;22.77;;;;;;;7.92;100.00;93650.56;5030179;28;20053;-86
2021/10/21 03:51:30;;;;;;;36.13;23.80;;;;;;;8.13;100.00;93677.16;5030530;28;20050;-86
2021/10/21 03:53:57;;;;;;;34.35;23.35;;;;;;;8.08;100.00;93679.47;5030592;28;20057;-87
2021/10/21 03:56:25;;;;;;;30.40;21.38;;;;;;;8.05;100.00;93670.38;5030538;28;20041;-87
2021/10/21 03:58:52;;;;;;;36.03;23.13;;;;;;;8.09;100.00;93683.59;5030846;28;20046;-86
2021/10/21 04:01:19;;;;;;;38.28;23.73;;;;;;;8.08;100.00;93684.56;5030468;28;20053;-87
2021/10/21 04:03:46;;;;;;;47.05;31.60;;;;;;;7.91;100.00;93686.59;5030127;28;20054;-87
2021/10/21 04:06:12;;;;;;;50.72;33.88;;;;;;;6.79;100.00;93695.00;5030437;28;20057;-87
2021/10/21 04:08:39;;;;;;;56.05;35.63;;;;;;;6.33;100.00;93700.97;5030305;28;20057;-87
2021/10/21 04:11:06;;;;;;;59.65;35.35;;;;;;;5.64;100.00;93677.00;5030076;28;20057;-88
2021/10/21 04:13:34;;;;;;;54.33;34.72;;;;;;;5.36;100.00;93690.97;5030235;28;20063;-89
2021/10/21 04:16:01;;;;;;;58.00;34.22;;;;;;;4.88;100.00;93691.75;5033322;28;20049;-87
2021/10/21 04:18:28;;;;;;;60.63;34.38;;;;;;;4.75;100.00;93682.06;5033496;28;20111;-86
2021/10/21 04:20:55;;;;;;;57.42;34.63;;;;;;;4.74;100.00;93683.03;5033723;28;20041;-87
2021/10/21 04:23:21;;;;;;;56.28;34.55;;;;;;;4.14;100.00;93685.75;5033942;28;20050;-86
2021/10/21 04:25:48;;;;;;;73.05;38.80;;;;;;;3.89;100.00;93682.38;5033526;28;20041;-87
2021/10/21 04:28:16;;;;;;;63.08;35.30;;;;;;;3.66;100.00;93682.19;5033415;28;20068;-86
2021/10/21 04:30:44;;;;;;;68.35;37.70;;;;;;;3.65;100.00;93657.72;5033170;28;20460;-87
2021/10/21 04:33:11;;;;;;;65.00;36.72;;;;;;;3.85;100.00;93676.03;5033501;28;20064;-86
2021/10/21 04:35:38;;;;;;;61.63;35.38;;;;;;;4.06;100.00;93667.94;5033417;28;20045;-87
2021/10/21 04:38:05;;;;;;;56.03;32.53;;;;;;;4.18;100.00;93678.59;5033230;28;20050;-87
2021/10/21 04:40:32;;;;;;;57.97;32.55;;;;;;;3.97;100.00;93648.53;5033125;28;20049;-88
2021/10/21 04:43:00;;;;;;;58.78;33.97;;;;;;;3.95;100.00;93678.41;5033196;28;20052;-87
2021/10/21 04:45:32;;;;;;;64.15;31.75;;;;;;;4.01;100.00;93677.78;5033203;28;20045;-89
2021/10/21 04:48:00;;;;;;;64.50;34.88;;;;;;;3.83;100.00;93670.28;5032925;28;20053;-87
2021/10/21 04:50:30;;;;;;;61.15;35.45;;;;;;;3.23;100.00;93618.75;5032299;28;20046;-88
2021/10/21 04:52:56;;;;;;;68.95;39.60;;;;;;;3.69;100.00;93685.19;5034147;28;20057;-88
2021/10/21 04:55:24;;;;;;;81.15;43.50;;;;;;;3.61;100.00;93675.00;5032982;28;20060;-87
2021/10/21 04:57:52;;;;;;;85.70;42.95;;;;;;;3.78;100.00;93680.13;5032703;28;20049;-88
2021/10/21 05:00:20;;;;;;;72.57;39.60;;;;;;;3.90;100.00;93683.19;5032985;28;20475;-87
2021/10/21 05:02:47;;;;;;;67.63;37.08;;;;;;;4.15;100.00;93668.75;5032787;28;20053;-87
2021/10/21 05:05:16;;;;;;;69.40;36.42;;;;;;;4.02;100.00;93674.28;5032742;28;20613;-87
2021/10/21 05:07:42;;;;;;;67.47;37.90;;;;;;;4.34;100.00;93675.25;5032665;28;20057;-88
2021/10/21 05:10:10;;;;;;;69.97;38.80;;;;;;;4.14;100.00;93627.28;5032667;28;20049;-88
2021/10/21 05:12:36;;;;;;;52.90;33.20;;;;;;;4.57;100.00;93674.59;5032452;28;20100;-88
2021/10/21 05:15:04;;;;;;;50.38;30.15;;;;;;;4.64;100.00;93673.00;5032856;28;20042;-88
2021/10/21 05:17:30;;;;;;;44.28;27.98;;;;;;;4.70;100.00;93676.66;5032499;28;20052;-89
2021/10/21 05:19:57;;;;;;;44.22;27.55;;;;;;;4.76;100.00;93675.22;5032609;28;20049;-87
2021/10/21 05:22:25;;;;;;;46.50;28.30;;;;;;;4.71;100.00;93672.38;5032592;28;20508;-87
2021/10/21 05:24:52;;;;;;;50.47;31.05;;;;;;;4.82;100.00;93672.81;5031964;28;20057;-88
2021/10/21 05:27:19;;;;;;;49.65;31.48;;;;;;;4.60;100.00;93670.94;5032563;28;20053;-87
2021/10/21 05:29:48;;;;;;;60.25;33.17;;;;;;;4.62;100.00;93664.75;5032729;28;20059;-87
2021/10/21 05:32:15;;;;;;;53.35;32.58;;;;;;;4.69;100.00;93662.34;5032381;28;21071;-87
2021/10/21 05:34:45;;;;;;;51.28;29.88;;;;;;;4.81;100.00;93663.59;5032280;28;20045;-87
2021/10/21 05:37:12;;;;;;;53.80;32.05;;;;;;;5.00;100.00;93656.53;5032090;28;20104;-87
2021/10/21 05:39:41;;;;;;;50.83;30.23;;;;;;;5.14;100.00;93659.38;5032018;28;20115;-87
2021/10/21 05:42:09;;;;;;;53.78;30.58;;;;;;;5.40;100.00;93648.91;5032248;28;20050;-88
2021/10/21 05:44:36;;;;;;;50.42;31.63;;;;;;;5.51;100.00;93629.13;5032126;28;20046;-87
2021/10/21 05:47:04;;;;;;;49.42;29.27;;;;;;;5.85;100.00;93633.88;5032013;28;20045;-88
2021/10/21 05:49:31;;;;;;;51.28;30.58;;;;;;;6.07;100.00;93638.34;5032286;28;20053;-95
2021/10/21 05:51:58;;;;;;;56.70;32.05;;;;;;;6.35;100.00;93637.81;5032227;28;20467;-90
2021/10/21 05:54:24;;;;;;;53.97;31.02;;;;;;;6.52;100.00;93643.56;5031773;28;20041;-88
2021/10/21 05:56:53;;;;;;;46.45;29.42;;;;;;;6.74;100.00;93646.22;5031732;28;20063;-90
2021/10/21 05:59:19;;;;;;;53.33;32.13;;;;;;;6.88;100.00;93640.34;5031748;28;20064;-88
2021/10/21 06:01:47;;;;;;;55.25;33.13;;;;;;;6.94;100.00;93621.78;5032221;28;20054;-88
2021/10/21 06:04:14;;;;;;;44.63;28.45;;;;;;;7.18;100.00;93635.22;5032645;28;20053;-88
2021/10/21 06:06:41;;;;;;;45.72;28.00;;;;;;;7.34;100.00;93630.91;5031935;28;20049;-95
2021/10/21 06:09:08;;;;;;;43.53;28.45;;;;;;;7.47;100.00;93625.94;5031775;28;20571;-85
2021/10/21 06:11:37;;;;;;;44.38;27.90;;;;;;;7.50;100.00;93619.66;5031587;28;20067;-86
2021/10/21 06:14:17;;;;;;;43.85;26.08;;;;;;;7.42;100.00;93579.69;5031653;28;20057;-94
2021/10/21 06:16:46;;;;;;;39.72;26.73;;;;;;;7.80;100.00;93618.78;5031882;28;20045;-87
2021/10/21 06:19:14;;;;;;;46.90;28.42;;;;;;;7.81;100.00;93608.38;5031134;28;20049;-90
2021/10/21 06:21:46;;;;;;;44.28;27.65;;;;;;;8.01;100.00;93618.00;5031796;28;20048;-90
2021/10/21 06:24:13;;;;;;;39.13;25.77;;;;;;;8.17;100.00;93629.75;5031382;28;20063;-86
2021/10/21 06:26:40;;;;;;;39.03;26.25;;;;;;;8.28;100.00;93621.56;5031346;28;20049;-88
2021/10/21 06:29:11;;;;;;;40.78;26.17;;;;;;;8.41;100.00;93622.66;5031260;28;20065;-87
2021/10/21 06:31:38;;;;;;;37.42;25.58;;;;;;;8.58;100.00;93627.53;5031092;28;20068;-88
2021/10/21 06:34:04;;;;;;;38.38;24.15;;;;;;;8.73;100.00;93625.66;5031279;28;20049;-87
2021/10/21 06:36:31;;;;;;;33.22;23.30;;;;;;;8.78;100.00;93618.22;5030462;28;20053;-93
2021/10/21 06:38:58;;;;;;;39.17;23.88;;;;;;;8.96;100.00;93624.59;5029799;28;20410;-88
2021/10/21 06:41:26;;;;;;;42.08;25.38;;;;;;;8.91;100.00;93606.44;5031094;28;20053;-88
2021/10/21 06:43:53;;;;;;;39.72;25.35;;;;;;;9.20;100.00;93627.69;5031108;28;20057;-88
2021/10/21 06:46:21;;;;;;;43.67;25.75;;;;;;;9.33;100.00;93635.44;5030937;28;20139;-88
2021/10/21 06:48:54;;;;;;;37.97;23.88;;;;;;;9.44;100.00;93633.31;5031364;28;20049;-89
2021/10/21 06:51:27;;;;;;;39.97;24.27;;;;;;;9.51;100.00;93623.06;5031190;28;20136;-88
2021/10/21 06:53:54;;;;;;;36.72;23.70;;;;;;;9.58;100.00;93627.22;5030990;28;20055;-87
2021/10/21 06:56:23;;;;;;;38.40;24.40;;;;;;;9.47;100.00;93599.59;5031356;28;20042;-88
2021/10/21 06:59:12;;;;;;;36.72;22.90;;;;;;;9.74;100.00;93626.09;5031230;28;20077;-86
2021/10/21 07:01:41;;;;;;;32.50;21.63;;;;;;;9.84;100.00;93630.84;5016256;28;20049;-88
2021/10/21 07:04:08;;;;;;;34.83;20.92;;;;;;;9.95;100.00;93637.19;5031739;28;20049;-88
2021/10/21 07:06:38;;;;;;;35.15;21.83;;;;;;;10.06;100.00;93629.91;5031296;28;20042;-94
2021/10/21 07:09:05;;;;;;;37.80;22.08;;;;;;;10.16;100.00;93627.75;5030874;28;20050;-91
2021/10/21 07:11:32;;;;;;;34.72;21.90;;;;;;;10.15;100.00;93624.38;5031406;28;20057;-86
2021/10/21 07:14:03;;;;;;;34.97;20.90;;;;;;;10.35;100.00;93630.50;5031692;28;20049;-85
2021/10/21 07:16:33;;;;;;;28.02;19.45;;;;;;;10.42;100.00;93632.09;5031850;28;20053;-87
2021/10/21 07:19:06;;;;;;;34.72;19.88;;;;;;;10.39;100.00;93616.28;5031572;28;20068;-88
2021/10/21 07:21:34;;;;;;;31.60;19.98;;;;;;;10.59;100.00;93628.38;5031213;28;20092;-89
2021/10/21 07:24:02;;;;;;;33.95;20.40;;;;;;;10.68;100.00;93627.97;5031482;28;20068;-87
2021/10/21 07:26:30;;;;;;;32.15;20.88;;;;;;;10.70;100.00;93617.50;5031714;28;20045;-90
2021/10/21 07:28:57;;;;;;;33.35;20.27;;;;;;;10.80;100.00;93620.41;5031009;28;20050;-93
2021/10/21 07:31:26;;;;;;;33.83;20.15;;;;;;;11.04;100.00;93637.97;5030439;28;20053;-92
2021/10/21 07:33:54;;;;;;;28.50;18.70;;;;;;;11.08;100.00;93626.31;5031436;28;20140;-86
2021/10/21 07:36:24;;;;;;;27.45;18.02;;;;;;;11.15;100.00;93626.28;5030713;28;20049;-89
2021/10/21 07:38:53;;;;;;;23.92;17.13;;;;;;;11.25;100.00;93631.00;5030736;28;20064;-86
2021/10/21 07:41:21;;;;;;;26.23;17.27;;;;;;;11.34;100.00;93634.94;5030857;28;20104;-87
2021/10/21 07:43:54;;;;;;;30.13;18.23;;;;;;;11.37;100.00;93629.38;5045571;28;20084;-87
2021/10/21 07:46:25;;;;;;;28.20;17.20;;;;;;;11.34;100.00;93637.50;5050999;28;20052;-92
2021/10/21 07:48:51;;;;;;;24.65;17.25;;;;;;;11.31;100.00;93631.00;5052354;28;20049;-90
2021/10/21 07:51:23;;;;;;;21.88;15.82;;;;;;;11.33;100.00;93639.28;5055155;28;20103;-89
2021/10/21 07:53:53;;;;;;;22.55;15.23;;;;;;;11.30;100.00;93642.25;5055794;28;20057;-87
2021/10/21 07:56:26;;;;;;;23.15;16.08;;;;;;;11.21;100.00;93638.34;5054209;28;20132;-87
2021/10/21 07:59:01;;;;;;;25.17;15.68;;;;;;;10.76;100.00;93567.88;5056182;28;20136;-90
2021/10/21 08:01:30;;;;;;;25.10;16.10;;;;;;;11.25;100.00;93626.63;5055262;28;20049;-87
2021/10/21 08:03:59;;;;;;;25.45;16.40;;;;;;;11.42;100.00;93632.13;5055016;28;20059;-91
2021/10/21 08:06:26;;;;;;;26.17;17.88;;;;;;;11.58;100.00;93638.59;5054825;28;20077;-88
2021/10/21 08:09:04;;;;;;;23.33;15.65;;;;;;;11.64;100.00;93631.84;5056295;28;20049;-88
2021/10/21 08:11:31;;;;;;;23.65;15.95;;;;;;;11.77;100.00;93624.03;5055097;28;20049;-87
2021/10/21 08:13:58;;;;;;;19.40;13.40;;;;;;;11.84;100.00;93621.44;5054593;28;20049;-86
2021/10/21 08:16:25;;;;;;;21.05;14.43;;;;;;;11.99;100.00;93621.16;5054783;28;20049;-91
2021/10/21 08:18:51;;;;;;;21.00;15.32;;;;;;;12.09;100.00;93615.56;5052625;28;20411;-86
2021/10/21 08:21:20;;;;;;;18.40;12.63;;;;;;;12.07;100.00;93598.75;5053728;28;20052;-85
2021/10/21 08:23:50;;;;;;;21.23;13.68;;;;;;;12.32;100.00;93613.44;5053546;28;20052;-85
2021/10/21 08:26:18;;;;;;;19.35;13.25;;;;;;;12.48;100.00;93607.75;5054180;28;20045;-86
2021/10/21 08:28:47;;;;;;;20.13;12.98;;;;;;;12.66;100.00;93601.06;5053469;28;20053;-90
2021/10/21 08:31:14;;;;;;;22.27;13.85;;;;;;;12.62;100.00;93567.19;5053864;28;20055;-85
2021/10/21 08:33:42;;;;;;;22.90;12.55;;;;;;;12.77;100.00;93572.00;5044209;28;20046;-87
2021/10/21 08:36:11;;;;;;;18.60;12.38;;;;;;;13.08;100.00;93593.50;5035409;28;20077;-87
2021/10/21 08:38:38;;;;;;;17.55;12.55;;;;;;;13.17;100.00;93591.41;5033097;28;20064;-88
2021/10/21 08:41:06;;;;;;;16.58;11.73;;;;;;;13.40;100.00;93592.53;5033226;28;20053;-86
2021/10/21 08:43:35;;;;;;;15.30;11.43;;;;;;;13.47;98.77;93593.28;5033658;28;20050;-86
2021/10/21 08:46:03;;;;;;;15.65;11.25;;;;;;;13.60;98.30;93591.53;5033162;28;20484;-86
2021/10/21 08:48:31;;;;;;;16.30;11.23;;;;;;;13.76;97.72;93584.97;5033230;28;20050;-85
2021/10/21 08:50:58;;;;;;;16.40;11.35;;;;;;;13.88;96.70;93580.63;5033121;28;20052;-91
2021/10/21 08:53:26;;;;;;;15.15;10.63;;;;;;;14.06;97.25;93580.78;5033073;28;20491;-86
2021/10/21 08:55:53;;;;;;;17.63;12.27;;;;;;;14.26;96.60;93580.47;5033097;28;20045;-86
2021/10/21 08:58:24;;;;;;;13.80;10.80;;;;;;;14.26;95.58;93562.38;5032903;28;20045;-87
2021/10/21 09:00:57;;;;;;;13.73;9.90;;;;;;;14.54;95.11;93571.28;5032553;28;20511;-87
2021/10/21 09:03:42;;;;;;;11.85;9.25;;;;;;;14.57;92.84;93565.63;5033051;28;20558;-86
2021/10/21 09:06:25;;;;;;;13.05;9.80;;;;;;;14.62;91.73;93557.22;5033369;28;20095;-93
2021/10/21 09:08:56;;;;;;;14.30;9.75;;;;;;;14.84;92.18;93560.03;5033020;28;20414;-87
2021/10/21 09:11:26;;;;;;;14.13;8.57;;;;;;;14.82;90.61;93543.97;5033293;28;20054;-91
2021/10/21 09:14:08;;;;;;;14.57;9.52;;;;;;;14.94;88.79;93544.72;5032535;28;20095;-88
2021/10/21 09:16:36;;;;;;;13.25;8.45;;;;;;;14.96;88.99;93552.25;5032564;28;20049;-87
2021/10/21 09:19:07;;;;;;;14.55;10.07;;;;;;;15.04;89.54;93538.97;5033089;28;20124;-86
2021/10/21 09:21:37;;;;;;;12.85;8.23;;;;;;;15.19;88.16;93540.28;5033051;28;20065;-86
2021/10/21 09:24:24;;;;;;;10.80;7.90;;;;;;;15.19;86.66;93533.28;5032736;28;20053;-85
2021/10/21 09:27:05;;;;;;;13.30;8.63;;;;;;;15.30;86.88;93538.66;5032296;28;20504;-85
2021/10/21 09:29:33;;;;;;;13.07;8.05;;;;;;;15.31;86.05;93538.44;5032131;28;20447;-85
2021/10/21 09:32:08;;;;;;;10.90;7.95;;;;;;;15.22;84.58;93524.28;5032394;28;20137;-86
2021/10/21 09:34:44;;;;;;;14.13;8.02;;;;;;;15.33;84.76;93538.22;5032486;28;20045;-87
2021/10/21 09:37:12;;;;;;;10.80;7.47;;;;;;;15.32;85.32;93542.59;5032127;28;20057;-86
2021/10/21 09:39:48;;;;;;;12.48;8.25;;;;;;;15.20;85.86;93527.13;5032583;28;20052;-87
2021/10/21 09:42:16;;;;;;;;;;;;;;;15.45;84.25;93543.31;5032998;28;20459;-85
2021/10/21 09:44:45;;;;;;;12.85;8.73;;;;;;;15.47;85.20;93526.53;5032252;28;20015;-92
2021/10/21 09:47:21;;;;;;;12.30;8.70;;;;;;;15.44;84.45;93536.59;5031910;28;20054;-85
2021/10/21 09:49:56;;;;;;;11.27;7.88;;;;;;;15.56;85.01;93526.19;5032284;28;20086;-87
2021/10/21 09:52:25;;;;;;;12.13;8.23;;;;;;;15.72;85.04;93524.63;5032904;28;20106;-86
2021/10/21 09:54:53;;;;;;;12.60;8.98;;;;;;;15.65;83.88;93517.03;5031815;28;20099;-86
2021/10/21 09:57:29;;;;;;;11.85;8.25;;;;;;;15.70;84.21;93511.91;5032105;28;20160;-84
2021/10/21 10:00:04;;;;;;;;;;;;;;;15.79;82.83;93512.34;5032103;28;20054;-85
2021/10/21 10:02:37;;;;;;;12.43;8.70;;;;;;;15.76;83.46;93510.22;5031579;28;20513;-85
2021/10/21 10:05:07;;;;;;;12.13;7.82;;;;;;;15.77;83.83;93504.78;5030002;28;20527;-85
2021/10/21 10:07:36;;;;;;;14.38;8.50;;;;;;;15.89;84.14;93499.53;5031722;28;20061;-85
2021/10/21 10:10:04;;;;;;;15.25;8.35;;;;;;;16.06;84.65;93496.19;5031706;28;20072;-86
2021/10/21 10:12:32;;;;;;;12.13;8.23;;;;;;;16.12;83.34;93492.63;5031615;28;20496;-86
2021/10/21 10:14:59;;;;;;;11.20;7.65;;;;;;;16.21;81.94;93487.88;5031656;28;20045;-86
2021/10/21 10:17:27;;;;;;;14.63;8.50;;;;;;;16.18;81.09;93475.38;5031540;28;20049;-87
2021/10/21 10:19:56;;;;;;;11.63;7.25;;;;;;;16.19;82.34;93476.16;5031680;28;20081;-86
2021/10/21 10:22:26;;;;;;;13.02;8.40;;;;;;;16.26;81.32;93476.78;5031508;28;20050;-89
2021/10/21 10:24:54;;;;;;;13.32;8.35;;;;;;;16.34;82.61;93471.16;5031455;28;20049;-86
2021/10/21 10:27:29;;;;;;;12.18;7.82;;;;;;;16.45;81.53;93459.16;5031195;28;20042;-87
2021/10/21 10:29:56;;;;;;;11.00;8.05;;;;;;;16.40;80.90;93459.84;5031323;28;20103;-85
2021/10/21 10:32:43;;;;;;;12.57;8.05;;;;;;;16.43;80.46;93454.19;5031318;28;20056;-86
2021/10/21 10:35:13;;;;;;;13.82;7.68;;;;;;;16.40;79.92;93444.28;5031014;28;20053;-86
2021/10/21 10:37:47;;;;;;;11.90;7.82;;;;;;;16.33;80.54;93424.78;5031030;28;20068;-86
2021/10/21 10:40:34;;;;;;;12.98;8.00;;;;;;;16.52;80.24;93436.41;5031085;28;20053;-85
2021/10/21 10:43:01;;;;;;;13.15;8.13;;;;;;;16.56;80.65;93424.53;5031576;28;20534;-85
2021/10/21 10:45:46;;;;;;;12.43;7.60;;;;;;;16.53;77.88;93419.81;5031188;28;20041;-85
2021/10/21 10:48:15;;;;;;;14.15;7.88;;;;;;;16.51;79.57;93411.50;5031771;28;20132;-84
2021/10/21 10:50:56;;;;;;;12.90;8.23;;;;;;;16.60;78.85;93400.69;5031061;28;20053;-85
2021/10/21 10:53:51;;;;;;;13.75;8.38;;;;;;;16.70;78.68;93408.59;5031056;28;20049;-88
2021/10/21 10:56:44;;;;;;;13.60;7.47;;;;;;;16.78;78.91;93407.38;5030742;28;20132;-87
2021/10/21 10:59:30;;;;;;;12.30;7.60;;;;;;;16.65;78.10;93391.19;5030996;28;20503;-85
2021/10/21 11:01:58;;;;;;;11.30;6.75;;;;;;;16.87;78.44;93410.34;5031192;28;20045;-87
2021/10/21 11:07:53;;;;;;;11.55;7.18;;;;;;;16.98;77.35;93393.84;5029367;28;20065;-86
2021/10/21 11:10:42;;;;;;;12.77;7.30;;;;;;;17.03;76.12;93388.72;5032144;28;20076;-89
2021/10/21 11:13:37;;;;;;;11.95;7.70;;;;;;;17.04;75.73;93389.53;5024017;28;20389;-88
2021/10/21 11:16:07;;;;;;;12.60;8.25;;;;;;;17.18;76.79;93384.72;5050781;28;20491;-90
2021/10/21 11:18:50;;;;;;;11.98;7.70;;;;;;;17.18;75.93;93369.91;5050615;28;20158;-87
2021/10/21 11:21:49;;;;;;;14.95;7.75;;;;;;;17.25;76.58;93379.34;5050725;28;21023;-86
2021/10/21 11:24:49;;;;;;;11.32;7.72;;;;;;;17.36;74.64;93366.16;4973185;28;20053;-86
2021/10/21 11:27:19;;;;;;;13.00;7.80;;;;;;;17.44;76.38;93357.16;5050051;28;20443;-87
2021/10/21 11:29:47;;;;;;;11.68;7.85;;;;;;;17.60;74.63;93368.41;5054899;28;20060;-85
2021/10/21 11:32:15;;;;;;;10.88;7.05;;;;;;;17.70;75.02;93356.53;5055464;28;20132;-86